Time;durP1;ratioP1;P1;durP2;ratioP2;P2;SDS_P1;SDS_P2;PMS_P1;PMS_P2;Temp;Humidity;BMP_temperature;BMP_pressure;BME280_temperature;BME280_humidity;BME280_pressure;Samples;Min_cycle;Max_cycle;Signal;HPM_P1;HPM_P2
2022/12/15 00:39:28;;;;;;;33.00;17.40;;;;;;;-1.85;87.03;97483.48;2190149;81;20961;-80
2022/12/15 00:42:28;;;;;;;30.63;16.47;;;;;;;-1.85;87.00;97490.75;2190547;81;21048;-80
2022/12/15 00:48:48;;;;;;;26.30;17.40;;;;;;;-1.88;87.05;97485.92;2190824;81;21351;-80
2022/12/15 01:21:37;;;;;;;35.13;18.93;;;;;;;-1.81;87.04;97514.77;2190361;81;21086;-80
2022/12/15 01:24:38;;;;;;;32.83;17.53;;;;;;;-1.82;86.95;97516.85;2191113;81;21383;-80
2022/12/15 01:27:38;;;;;;;36.83;19.83;;;;;;;-1.82;87.14;97522.84;2191048;81;20999;-80
2022/12/15 01:30:39;;;;;;;35.47;20.50;;;;;;;-1.81;87.07;97521.16;2191452;81;20924;-80
2022/12/15 01:33:41;;;;;;;36.23;20.60;;;;;;;-1.81;87.07;97522.44;2191919;81;20928;-80
2022/12/15 01:36:40;;;;;;;38.73;20.97;;;;;;;-1.85;87.00;97518.02;2192277;81;21323;-80
2022/12/15 01:42:59;;;;;;;45.67;23.07;;;;;;;-1.94;87.03;97530.04;2191618;81;21024;-79
2022/12/15 01:46:02;;;;;;;47.90;24.60;;;;;;;-1.96;87.29;97534.22;2190644;81;20952;-79
2022/12/15 01:49:02;;;;;;;50.63;24.13;;;;;;;-1.95;87.31;97534.69;2191417;81;20897;-80
2022/12/15 01:52:03;;;;;;;51.77;24.47;;;;;;;-1.99;87.34;97534.98;2191834;81;21285;-79
2022/12/15 01:55:04;;;;;;;58.90;26.43;;;;;;;-1.99;87.55;97539.22;2191946;81;20980;-79
2022/12/15 01:58:03;;;;;;;49.67;25.80;;;;;;;-2.00;87.62;97541.30;2191203;81;20984;-79
2022/12/15 02:01:04;;;;;;;48.93;24.73;;;;;;;-1.96;87.69;97545.73;2191077;81;21524;-79
2022/12/15 02:04:07;;;;;;;47.47;23.97;;;;;;;-1.97;87.64;97548.69;2191749;81;21012;-79
2022/12/15 02:07:07;;;;;;;50.30;24.63;;;;;;;-1.90;87.87;97551.49;2191856;81;20944;-79
2022/12/15 02:10:10;;;;;;;50.33;25.20;;;;;;;-1.87;87.62;97547.37;2191383;81;20948;-80
2022/12/15 02:13:10;;;;;;;49.90;25.30;;;;;;;-1.86;87.81;97551.67;2191036;81;20997;-79
2022/12/15 02:16:11;;;;;;;45.03;23.53;;;;;;;-1.85;87.82;97552.14;2190825;81;20976;-80
2022/12/15 02:19:11;;;;;;;52.07;25.10;;;;;;;-1.84;87.67;97550.05;2190547;81;20964;-80
2022/12/15 02:22:12;;;;;;;54.33;28.27;;;;;;;-1.83;87.75;97563.30;2191105;81;20968;-80
2022/12/15 02:25:12;;;;;;;46.77;24.97;;;;;;;-1.78;88.01;97554.53;2190459;81;21340;-80
2022/12/15 02:28:12;;;;;;;45.53;23.77;;;;;;;-1.74;87.81;97563.66;2190402;81;21031;-79
2022/12/15 02:34:33;;;;;;;44.70;22.33;;;;;;;-1.68;87.67;97570.73;2190776;81;20988;-80
2022/12/15 02:37:33;;;;;;;50.37;25.50;;;;;;;-1.72;87.65;97577.42;2191949;81;20924;-80
2022/12/15 02:40:33;;;;;;;52.10;26.53;;;;;;;-1.72;87.66;97590.62;2191201;81;20980;-80
2022/12/15 02:43:34;;;;;;;52.90;27.80;;;;;;;-1.76;87.70;97593.83;2191596;81;20956;-80
2022/12/15 02:46:34;;;;;;;58.27;28.63;;;;;;;-1.79;87.74;97593.71;2191459;81;20914;-80
2022/12/15 02:49:35;;;;;;;56.50;28.57;;;;;;;-1.83;87.88;97600.39;2191522;81;20937;-79
2022/12/15 02:52:35;;;;;;;60.77;27.63;;;;;;;-1.84;87.91;97593.94;2191279;81;21299;-79
2022/12/15 02:55:35;;;;;;;51.57;25.83;;;;;;;-1.85;88.05;97601.14;2191361;81;20991;-79
2022/12/15 02:58:36;;;;;;;52.00;27.40;;;;;;;-1.86;87.99;97602.83;2191695;81;21011;-80
2022/12/15 03:01:36;;;;;;;54.57;27.33;;;;;;;-1.85;88.07;97607.53;2191442;81;20943;-80
2022/12/15 03:04:37;;;;;;;60.63;30.07;;;;;;;-1.89;88.05;97618.45;2191479;81;20988;-80
2022/12/15 03:07:37;;;;;;;54.70;26.90;;;;;;;-1.93;88.30;97622.58;2191179;81;20901;-79
2022/12/15 03:10:37;;;;;;;56.57;28.50;;;;;;;-1.86;88.60;97617.30;2191479;81;20916;-80
2022/12/15 03:13:39;;;;;;;60.47;28.70;;;;;;;-1.84;88.44;97619.52;2191188;81;20996;-80
2022/12/15 03:16:39;;;;;;;58.57;31.13;;;;;;;-1.89;88.15;97631.24;2191071;81;20936;-79
2022/12/15 03:19:39;;;;;;;62.87;30.70;;;;;;;-1.97;88.31;97627.09;2190464;81;20929;-79
2022/12/15 03:22:40;;;;;;;59.00;29.63;;;;;;;-1.99;88.37;97636.39;2190420;81;21024;-79
2022/12/15 03:25:40;;;;;;;65.70;32.17;;;;;;;-2.02;88.51;97629.47;2190800;81;20963;-79
2022/12/15 03:28:41;;;;;;;68.03;33.53;;;;;;;-2.01;88.53;97632.89;2190362;81;21062;-80
2022/12/15 03:31:41;;;;;;;66.77;33.77;;;;;;;-2.01;88.61;97634.17;2191281;81;20956;-80
2022/12/15 03:34:41;;;;;;;60.53;30.40;;;;;;;-2.05;88.62;97628.47;2191382;81;21003;-80
2022/12/15 03:37:42;;;;;;;60.37;28.77;;;;;;;-2.10;88.67;97637.23;2191759;81;20928;-80
2022/12/15 03:40:42;;;;;;;62.17;31.50;;;;;;;-2.14;88.91;97635.76;2177323;81;20970;-80
2022/12/15 03:43:45;;;;;;;70.97;33.27;;;;;;;-2.14;89.06;97649.41;2174530;82;20976;-79
2022/12/15 03:46:43;;;;;;;66.83;33.63;;;;;;;-2.17;88.89;97645.45;2173861;82;21348;-79
2022/12/15 03:49:43;;;;;;;67.23;32.90;;;;;;;-2.16;88.93;97648.88;2173526;81;20991;-80
2022/12/15 03:52:44;;;;;;;71.07;34.50;;;;;;;-2.17;88.99;97653.13;2173668;81;20929;-79
2022/12/15 03:55:44;;;;;;;72.27;36.20;;;;;;;-2.18;88.91;97653.93;2174222;81;20976;-79
2022/12/15 03:58:45;;;;;;;66.67;33.50;;;;;;;-2.18;89.04;97660.32;2173114;81;21065;-80
2022/12/15 04:01:45;;;;;;;69.80;34.97;;;;;;;-2.14;89.09;97666.44;2173827;81;20945;-80
2022/12/15 04:04:47;;;;;;;79.30;39.43;;;;;;;-2.14;88.99;97667.31;2173659;81;20981;-80
2022/12/15 04:07:46;;;;;;;71.70;34.27;;;;;;;-2.11;89.07;97667.84;2173337;81;20937;-80
2022/12/15 04:10:46;;;;;;;76.07;36.63;;;;;;;-2.02;89.28;97663.98;2173305;81;21309;-81
2022/12/15 04:13:47;;;;;;;82.60;37.40;;;;;;;-1.98;89.80;97677.77;2173817;81;20952;-80
2022/12/15 04:16:47;;;;;;;73.37;36.10;;;;;;;-1.96;88.89;97676.16;2172891;81;20948;-80
2022/12/15 04:23:06;;;;;;;79.47;38.00;;;;;;;-2.09;88.65;97691.39;2173624;82;20960;-79
2022/12/15 05:32:23;;;;;;;105.97;48.10;;;;;;;-2.45;90.47;97778.84;2190704;81;21499;-80
2022/12/15 05:35:24;;;;;;;82.90;41.73;;;;;;;-2.45;90.49;97783.08;2189337;81;20972;-81
2022/12/15 05:38:24;;;;;;;86.17;42.10;;;;;;;-2.48;90.82;97788.05;2190401;81;20905;-81
2022/12/15 05:41:25;;;;;;;88.90;42.70;;;;;;;-2.51;90.91;97787.52;2190243;81;20976;-82
2022/12/15 05:44:25;;;;;;;84.90;41.80;;;;;;;-2.51;91.01;97800.29;2190009;81;20990;-81
2022/12/15 05:47:26;;;;;;;91.23;45.43;;;;;;;-2.53;91.08;97812.12;2189910;81;20975;-81
2022/12/15 05:50:26;;;;;;;93.03;44.53;;;;;;;-2.57;91.19;97814.94;2190339;81;20968;-81
2022/12/15 05:53:32;;;;;;;97.13;46.97;;;;;;;-2.61;91.48;97813.41;2190704;81;21372;-81
2022/12/15 05:56:32;;;;;;;96.43;46.87;;;;;;;-2.61;91.43;97823.63;2189832;81;21436;-80
2022/12/15 05:59:32;;;;;;;92.47;49.17;;;;;;;-2.61;91.40;97832.17;2189748;81;21011;-81
2022/12/15 06:02:33;;;;;;;95.37;46.73;;;;;;;-2.62;91.60;97830.42;2189491;81;21026;-84
2022/12/15 06:05:33;;;;;;;91.23;44.33;;;;;;;-2.60;91.48;97836.51;2189772;81;20976;-86
2022/12/15 06:08:37;;;;;;;80.13;41.93;;;;;;;-2.58;91.40;97845.13;2188737;81;21007;-82
2022/12/15 06:11:37;;;;;;;87.30;41.73;;;;;;;-2.58;91.38;97856.62;2187755;81;20991;-83
2022/12/15 06:14:37;;;;;;;89.83;44.00;;;;;;;-2.55;91.31;97858.84;2188202;81;21379;-81
2022/12/15 06:17:38;;;;;;;90.77;44.90;;;;;;;-2.57;91.34;97857.09;2188217;81;21035;-82
2022/12/15 06:20:38;;;;;;;102.13;47.50;;;;;;;-2.58;91.19;97864.28;2188585;81;20984;-82
2022/12/15 06:23:39;;;;;;;97.43;47.23;;;;;;;-2.63;91.08;97875.94;2188082;81;21002;-82
2022/12/15 06:26:39;;;;;;;93.93;46.50;;;;;;;-2.65;91.22;97891.59;2188314;81;20971;-83
2022/12/15 06:29:39;;;;;;;87.43;44.03;;;;;;;-2.66;91.11;97894.95;2188188;81;20999;-81
2022/12/15 06:32:40;;;;;;;108.80;56.87;;;;;;;-2.68;91.12;97901.66;2187243;81;20963;-81
2022/12/15 06:35:40;;;;;;;90.57;46.50;;;;;;;-2.73;91.13;97907.35;2185961;81;21393;-83
2022/12/15 06:38:42;;;;;;;96.03;49.63;;;;;;;-2.71;91.11;97921.08;2186024;81;20999;-82
2022/12/15 06:41:41;;;;;;;97.80;46.33;;;;;;;-2.69;91.18;97928.41;2171098;81;21043;-80
2022/12/15 06:44:41;;;;;;;91.33;46.87;;;;;;;-2.66;91.06;97928.56;2170178;81;20984;-83
2022/12/15 06:47:42;;;;;;;90.00;45.07;;;;;;;-2.65;90.69;97932.47;2170715;81;21023;-84
2022/12/15 06:50:42;;;;;;;108.33;53.77;;;;;;;-2.71;90.13;97944.06;2171445;81;21380;-85
2022/12/15 06:53:52;;;;;;;93.07;47.60;;;;;;;-2.79;90.17;97932.59;2171366;81;20969;-84
2022/12/15 06:56:49;;;;;;;96.00;43.90;;;;;;;-2.82;90.14;97938.43;2170949;81;21692;-84
2022/12/15 06:59:50;;;;;;;89.13;45.60;;;;;;;-2.75;90.22;97953.66;2170256;81;21012;-83
2022/12/15 07:02:50;;;;;;;90.07;44.57;;;;;;;-2.69;89.93;97962.90;2170069;81;21004;-84
2022/12/15 07:05:50;;;;;;;83.37;41.53;;;;;;;-2.55;90.13;97969.99;2170195;81;20999;-83
2022/12/15 07:08:51;;;;;;;84.17;41.70;;;;;;;-2.44;89.19;97977.77;2170770;81;21350;-84
2022/12/15 07:11:51;;;;;;;85.73;41.13;;;;;;;-2.33;88.96;97974.93;2170503;81;20984;-84
2022/12/15 07:14:52;;;;;;;87.57;45.10;;;;;;;-2.23;88.48;97977.52;2170533;81;20976;-83
2022/12/15 07:17:52;;;;;;;86.17;44.37;;;;;;;-2.19;87.17;97982.38;2170891;81;20945;-85
2022/12/15 07:20:53;;;;;;;80.37;41.73;;;;;;;-2.17;87.49;97994.43;2170449;81;20987;-84
2022/12/15 07:23:53;;;;;;;78.77;39.47;;;;;;;-2.23;86.02;97983.91;2171232;82;21027;-83
2022/12/15 07:26:53;;;;;;;82.07;39.33;;;;;;;-2.34;85.80;97983.80;2170714;82;21253;-85
2022/12/15 07:29:54;;;;;;;77.17;38.80;;;;;;;-2.37;85.77;97990.92;2171931;82;21415;-85
2022/12/15 07:32:55;;;;;;;76.37;40.60;;;;;;;-2.40;85.94;97991.17;2171232;81;21000;-80
2022/12/15 07:35:55;;;;;;;78.13;39.23;;;;;;;-2.43;85.79;97996.14;2170572;81;20944;-83
2022/12/15 07:38:55;;;;;;;72.70;36.43;;;;;;;-2.46;85.83;97992.16;2171026;81;21387;-83
2022/12/15 07:41:55;;;;;;;62.07;33.37;;;;;;;-2.46;85.20;98001.09;2184612;81;21019;-80
2022/12/15 07:44:56;;;;;;;68.33;35.73;;;;;;;-2.39;84.81;98016.80;2187405;81;20984;-84
2022/12/15 07:47:56;;;;;;;75.73;36.73;;;;;;;-2.40;84.47;98018.02;2187450;81;21143;-79
2022/12/15 07:50:57;;;;;;;80.20;42.10;;;;;;;-1.52;100.00;98027.34;2188014;81;20960;-84
2022/12/15 07:53:57;;;;;;;75.73;39.90;;;;;;;-0.52;92.77;98033.48;2188065;81;20971;-85
2022/12/15 07:56:58;;;;;;;77.23;37.47;;;;;;;-1.04;86.06;98035.47;2188102;81;21385;-85
2022/12/15 07:59:58;;;;;;;68.83;35.77;;;;;;;-1.41;84.75;98051.75;2187714;81;21056;-84
2022/12/15 08:02:58;;;;;;;93.47;43.73;;;;;;;-1.67;84.07;98067.59;2188305;81;21075;-86
2022/12/15 08:05:59;;;;;;;79.20;38.57;;;;;;;-1.89;84.66;98076.30;2188516;81;21021;-86
2022/12/15 08:08:59;;;;;;;72.60;35.70;;;;;;;-1.97;84.33;98085.76;2188957;81;21140;-84
2022/12/15 08:12:00;;;;;;;70.50;35.63;;;;;;;-2.09;84.90;98091.56;2188603;81;20995;-85
2022/12/15 08:15:00;;;;;;;66.40;33.57;;;;;;;-2.15;83.73;98092.54;2187338;81;21015;-85
2022/12/15 08:18:00;;;;;;;64.37;35.50;;;;;;;-2.21;84.47;98092.23;2187391;81;21375;-84
2022/12/15 08:21:01;;;;;;;71.87;36.20;;;;;;;-2.12;83.99;98098.20;2187661;81;20939;-84
2022/12/15 08:24:01;;;;;;;66.13;34.17;;;;;;;-2.09;83.12;98100.91;2187311;81;20972;-80
2022/12/15 08:27:02;;;;;;;85.80;42.27;;;;;;;-2.04;82.98;98102.02;2187432;81;21008;-85
2022/12/15 08:30:02;;;;;;;71.27;35.17;;;;;;;-1.98;83.25;98099.34;2187596;81;21011;-85
2022/12/15 08:33:02;;;;;;;65.20;33.80;;;;;;;-1.80;82.06;98107.44;2187668;81;20984;-85
2022/12/15 08:36:03;;;;;;;59.67;32.60;;;;;;;-1.71;80.83;98114.30;2187642;81;20989;-83
2022/12/15 08:39:03;;;;;;;57.43;29.57;;;;;;;-1.66;81.07;98134.19;2187051;81;20975;-83
2022/12/15 08:42:04;;;;;;;58.70;32.23;;;;;;;-1.64;80.12;98134.27;2173143;81;21028;-84
2022/12/15 08:45:04;;;;;;;64.43;32.67;;;;;;;-1.66;79.96;98151.22;2171035;81;21003;-83
2022/12/15 08:48:04;;;;;;;69.27;31.77;;;;;;;-1.66;80.53;98157.63;2170739;81;21578;-80
2022/12/15 08:51:05;;;;;;;70.03;33.63;;;;;;;-1.54;91.33;98163.73;2171403;81;20972;-83
2022/12/15 08:54:05;;;;;;;63.90;31.07;;;;;;;-1.18;82.63;98153.94;2172632;81;21039;-85
2022/12/15 08:57:06;;;;;;;77.43;38.40;;;;;;;-1.31;80.20;98145.22;2171749;81;21435;-85
2022/12/15 09:00:06;;;;;;;83.10;41.93;;;;;;;-1.43;80.29;98139.52;2170893;81;21044;-84
2022/12/15 09:03:07;;;;;;;84.37;41.07;;;;;;;-1.54;79.88;98140.29;2170869;81;21036;-84
2022/12/15 09:06:07;;;;;;;62.00;31.70;;;;;;;-1.49;79.06;98133.70;2172221;82;20948;-85
2022/12/15 09:09:08;;;;;;;57.43;30.80;;;;;;;-1.49;78.36;98139.23;2171898;82;21095;-85
2022/12/15 09:12:08;;;;;;;66.83;34.63;;;;;;;-1.56;78.13;98138.47;2170871;81;21443;-85
2022/12/15 09:15:08;;;;;;;56.43;29.73;;;;;;;-1.62;78.76;98140.33;2170867;81;21427;-85
2022/12/15 09:18:09;;;;;;;59.93;31.07;;;;;;;-1.57;78.66;98138.87;2171468;81;20988;-85
2022/12/15 09:21:10;;;;;;;57.77;31.87;;;;;;;-1.50;79.07;98140.03;2171464;82;20999;-85
2022/12/15 09:24:10;;;;;;;58.47;32.93;;;;;;;-1.33;79.46;98140.42;2171694;81;20993;-84
2022/12/15 09:27:10;;;;;;;63.87;35.40;;;;;;;-1.27;78.15;98139.83;2171757;81;21463;-84
2022/12/15 09:30:10;;;;;;;52.93;29.80;;;;;;;-1.21;78.24;98155.48;2171052;81;21055;-85
2022/12/15 09:33:11;;;;;;;54.60;29.07;;;;;;;-1.11;78.67;98157.66;2172070;81;20984;-86
2022/12/15 09:36:12;;;;;;;54.03;29.30;;;;;;;-0.93;77.96;98157.63;2171459;81;20960;-83
2022/12/15 09:39:13;;;;;;;59.53;31.63;;;;;;;-0.89;77.17;98160.80;2170675;81;21008;-84
2022/12/15 09:42:12;;;;;;;58.07;32.00;;;;;;;-0.93;77.50;98172.59;2170520;81;21072;-83
2022/12/15 09:45:12;;;;;;;52.43;28.57;;;;;;;-0.97;76.87;98177.09;2170402;81;21003;-83
2022/12/15 09:48:13;;;;;;;50.47;28.57;;;;;;;-0.99;75.98;98184.72;2170927;81;21935;-85
2022/12/15 09:51:14;;;;;;;55.50;28.70;;;;;;;-1.16;77.25;98178.34;2170652;81;21040;-84
2022/12/15 09:54:14;;;;;;;58.97;30.10;;;;;;;-1.11;77.58;98170.47;2170983;81;20941;-85
2022/12/15 09:57:14;;;;;;;55.83;28.40;;;;;;;-1.19;76.60;98171.39;2171933;81;21024;-85
2022/12/15 10:00:14;;;;;;;55.53;28.30;;;;;;;-1.24;76.68;98170.70;2172050;81;21015;-86
2022/12/15 10:03:15;;;;;;;50.43;27.80;;;;;;;-1.35;76.23;98171.08;2172013;81;21616;-84
2022/12/15 10:06:16;;;;;;;56.37;30.00;;;;;;;-1.34;78.02;98178.35;2171688;81;20978;-85
2022/12/15 10:09:17;;;;;;;60.10;32.60;;;;;;;-1.32;77.14;98195.55;2171943;81;21015;-85
2022/12/15 10:12:17;;;;;;;70.37;33.80;;;;;;;-1.32;78.04;98203.22;2171718;81;20996;-83
2022/12/15 10:15:16;;;;;;;63.63;32.57;;;;;;;-1.13;77.05;98209.22;2171057;81;20968;-83
2022/12/15 10:18:17;;;;;;;58.03;31.70;;;;;;;-1.09;77.23;98207.27;2171644;81;21000;-83
2022/12/15 10:21:17;;;;;;;68.03;33.60;;;;;;;-1.04;77.27;98208.36;2171066;81;21854;-84
2022/12/15 10:24:18;;;;;;;64.83;34.87;;;;;;;-0.92;77.64;98214.46;2170169;81;20973;-84
2022/12/15 10:27:18;;;;;;;61.17;32.57;;;;;;;-0.77;77.63;98214.80;2170419;81;20972;-82
2022/12/15 10:30:18;;;;;;;59.40;30.83;;;;;;;-0.67;76.86;98213.52;2170303;81;21091;-83
2022/12/15 10:33:19;;;;;;;54.70;31.63;;;;;;;-0.66;76.38;98217.44;2169951;81;21435;-84
2022/12/15 10:36:19;;;;;;;56.77;31.17;;;;;;;-0.52;76.75;98228.72;2169990;81;21008;-83
2022/12/15 10:39:20;;;;;;;60.03;31.70;;;;;;;-0.51;75.66;98229.19;2169881;81;21000;-82
2022/12/15 10:42:20;;;;;;;61.20;33.77;;;;;;;-0.60;76.43;98224.94;2182364;81;21023;-83
2022/12/15 10:45:20;;;;;;;66.23;35.07;;;;;;;-0.62;76.20;98221.02;2186479;81;21031;-83
2022/12/15 10:48:21;;;;;;;67.13;35.33;;;;;;;-0.42;75.74;98219.34;2187170;81;20960;-83
2022/12/15 10:51:21;;;;;;;51.03;27.33;;;;;;;-0.42;75.74;98219.34;2187239;81;21054;-79
2022/12/15 10:54:22;;;;;;;49.13;28.47;;;;;;;-0.43;74.27;98227.45;2186856;81;20960;-82
2022/12/15 10:57:22;;;;;;;51.47;27.43;;;;;;;-0.42;74.14;98225.76;2187263;81;20956;-83
2022/12/15 11:00:25;;;;;;;50.23;27.30;;;;;;;-0.46;74.35;98214.89;2187104;81;21054;-83
2022/12/15 11:03:23;;;;;;;46.73;26.47;;;;;;;-0.45;73.70;98215.37;2187431;81;21027;-84
2022/12/15 11:06:28;;;;;;;53.47;27.33;;;;;;;-0.37;74.33;98211.05;2169350;81;21012;-82
2022/12/15 11:09:28;;;;;;;41.23;24.43;;;;;;;-0.35;73.17;98213.69;2186922;81;21351;-83
2022/12/15 11:15:49;;;;;;;41.63;21.20;;;;;;;-0.52;72.66;98208.21;2186462;81;21035;-82
2022/12/15 11:18:48;;;;;;;37.37;20.97;;;;;;;-0.51;70.85;98216.38;2186260;81;20964;-82
2022/12/15 11:21:49;;;;;;;34.37;21.77;;;;;;;-0.54;71.25;98217.52;2187293;81;20944;-83
2022/12/15 11:24:49;;;;;;;40.10;21.80;;;;;;;-0.62;72.27;98225.27;2187168;81;21075;-83
2022/12/15 11:27:50;;;;;;;37.57;21.43;;;;;;;-0.57;75.02;98228.92;2186895;81;20940;-84
2022/12/15 11:30:50;;;;;;;36.57;21.77;;;;;;;-0.49;71.34;98242.96;2186934;81;21269;-84
2022/12/15 11:33:50;;;;;;;42.30;21.47;;;;;;;-0.55;71.91;98244.84;2186333;81;21040;-85
2022/12/15 11:36:51;;;;;;;40.67;22.07;;;;;;;-0.55;72.29;98255.50;2186830;81;20940;-85
2022/12/15 11:39:51;;;;;;;47.37;24.80;;;;;;;-0.43;72.43;98259.90;2186651;81;21063;-83
2022/12/15 11:42:52;;;;;;;55.63;27.17;;;;;;;-0.43;71.38;98255.66;2172620;81;21744;-84
2022/12/15 11:45:52;;;;;;;52.90;28.07;;;;;;;-0.51;71.07;98253.14;2170032;81;20996;-83
2022/12/15 11:48:52;;;;;;;50.07;26.40;;;;;;;-0.52;72.95;98258.20;2170617;81;21245;-84
2022/12/15 11:51:53;;;;;;;51.90;26.53;;;;;;;-0.52;71.64;98276.15;2170284;81;20969;-82
2022/12/15 11:54:54;;;;;;;56.83;27.97;;;;;;;-0.52;71.64;98276.15;2170720;81;21035;-85
2022/12/15 11:57:54;;;;;;;63.73;29.43;;;;;;;-0.52;73.04;98279.99;2169831;81;21028;-83
2022/12/15 12:00:54;;;;;;;47.10;26.20;;;;;;;-0.53;72.74;98283.36;2170455;81;21067;-84
2022/12/15 12:03:54;;;;;;;40.63;21.43;;;;;;;-0.50;73.05;98295.92;2170066;81;21015;-84
2022/12/15 12:06:56;;;;;;;34.40;19.93;;;;;;;-0.43;73.00;98295.39;2169888;81;20961;-84
2022/12/15 12:09:55;;;;;;;36.70;21.43;;;;;;;-0.41;71.65;98291.62;2170180;81;21067;-83
2022/12/15 12:12:56;;;;;;;44.90;23.77;;;;;;;-0.47;72.82;98292.62;2169904;82;21004;-84
2022/12/15 12:15:56;;;;;;;36.47;22.50;;;;;;;-0.53;72.36;98284.64;2170394;81;21362;-84
2022/12/15 12:18:57;;;;;;;36.97;21.53;;;;;;;-0.60;72.10;98290.30;2169891;81;21495;-84
2022/12/15 12:21:57;;;;;;;44.77;23.97;;;;;;;-0.66;72.63;98293.45;2169878;81;20968;-84
2022/12/15 12:24:57;;;;;;;44.20;23.90;;;;;;;-0.67;73.34;98299.39;2169776;81;20985;-83
2022/12/15 12:27:58;;;;;;;38.00;22.10;;;;;;;-0.60;73.67;98299.27;2170098;81;21611;-84
2022/12/15 12:30:59;;;;;;;39.93;20.80;;;;;;;-0.68;72.53;98307.88;2169276;81;20988;-83
2022/12/15 12:33:59;;;;;;;38.90;23.07;;;;;;;-0.77;72.55;98314.73;2169510;81;20955;-84
2022/12/15 12:37:02;;;;;;;41.40;22.10;;;;;;;-0.89;72.50;98324.37;2169615;81;20948;-83
2022/12/15 12:40:02;;;;;;;43.67;23.90;;;;;;;-1.03;72.78;98327.95;2169834;81;21052;-85
2022/12/15 12:43:03;;;;;;;41.57;22.77;;;;;;;-1.13;73.48;98329.59;2169846;81;20997;-84
2022/12/15 12:46:03;;;;;;;51.60;26.80;;;;;;;-1.17;73.68;98327.68;2170086;81;21033;-84
2022/12/15 12:49:04;;;;;;;54.53;27.80;;;;;;;-1.17;74.59;98325.13;2170002;81;20957;-85
2022/12/15 12:52:04;;;;;;;58.77;28.13;;;;;;;-1.10;74.36;98320.38;2169740;81;20976;-85
2022/12/15 12:55:04;;;;;;;59.77;30.07;;;;;;;-1.04;74.45;98326.20;2170261;81;21494;-85
2022/12/15 12:58:05;;;;;;;49.23;25.60;;;;;;;-1.03;74.63;98329.23;2170603;81;21428;-85
2022/12/15 13:01:05;;;;;;;50.30;26.20;;;;;;;-1.02;74.84;98347.23;2169445;81;21063;-84
2022/12/15 13:04:06;;;;;;;58.20;27.67;;;;;;;-1.09;74.49;98338.78;2169966;81;21000;-84
2022/12/15 13:07:06;;;;;;;57.03;28.03;;;;;;;-1.11;74.55;98343.35;2169943;81;20933;-83
2022/12/15 13:10:07;;;;;;;62.80;29.17;;;;;;;-1.12;74.84;98334.79;2169711;81;21206;-83
2022/12/15 13:13:07;;;;;;;49.87;25.13;;;;;;;-0.96;74.78;98330.01;2169840;81;20988;-84
2022/12/15 13:16:08;;;;;;;49.73;26.37;;;;;;;-0.96;74.78;98330.01;2170000;81;21417;-84
2022/12/15 13:19:08;;;;;;;49.37;26.27;;;;;;;-1.02;74.96;98331.87;2170229;81;20988;-85
2022/12/15 13:22:08;;;;;;;44.40;24.43;;;;;;;-1.07;74.89;98332.45;2170778;81;21048;-85
2022/12/15 13:25:09;;;;;;;45.73;25.90;;;;;;;-1.12;75.22;98321.10;2170428;81;21016;-85
2022/12/15 13:28:09;;;;;;;43.27;24.50;;;;;;;-1.09;75.16;98323.41;2170332;81;20997;-85
2022/12/15 13:31:12;;;;;;;39.00;22.33;;;;;;;-1.12;75.26;98336.47;2159125;82;21448;-85
2022/12/15 13:34:12;;;;;;;42.73;23.73;;;;;;;-1.15;75.44;98341.44;2170185;82;20964;-85
2022/12/15 13:37:12;;;;;;;49.50;25.87;;;;;;;-1.19;75.67;98342.97;2170507;81;20977;-85
2022/12/15 13:40:13;;;;;;;55.33;27.73;;;;;;;-1.26;75.44;98331.95;2170869;81;20952;-86
2022/12/15 13:43:13;;;;;;;50.70;27.13;;;;;;;-1.33;75.66;98344.85;2170784;81;21103;-84
2022/12/15 13:46:13;;;;;;;41.50;22.90;;;;;;;-1.33;75.66;98344.85;2170935;81;20945;-84
2022/12/15 13:49:14;;;;;;;44.13;24.50;;;;;;;-1.44;74.96;98349.83;2170453;81;20960;-84
2022/12/15 13:52:14;;;;;;;39.43;23.10;;;;;;;-1.49;75.78;98359.36;2170819;81;21410;-84
2022/12/15 13:55:15;;;;;;;56.80;28.13;;;;;;;-1.46;76.11;98352.72;2169988;81;21360;-84
2022/12/15 13:58:15;;;;;;;68.53;32.87;;;;;;;-1.44;76.41;98361.75;2170325;82;20959;-83
2022/12/15 14:01:15;;;;;;;62.60;30.90;;;;;;;-1.45;76.54;98357.44;2170173;82;21482;-82
2022/12/15 14:04:16;;;;;;;52.53;24.07;;;;;;;-1.44;76.64;98352.39;2170906;81;21075;-79
2022/12/15 14:07:16;;;;;;;60.27;31.57;;;;;;;-1.47;75.79;98345.84;2170479;81;20929;-80
2022/12/15 14:10:17;;;;;;;78.47;35.90;;;;;;;-1.50;76.01;98354.64;2169857;82;20961;-81
2022/12/15 14:13:17;;;;;;;62.57;30.20;;;;;;;-1.47;76.35;98359.92;2169452;81;20941;-78
2022/12/15 14:16:20;;;;;;;60.43;28.07;;;;;;;-1.45;76.63;98360.88;2165986;81;20960;-81
2022/12/15 14:19:20;;;;;;;64.50;28.90;;;;;;;-1.45;76.79;98362.16;2159471;82;21002;-83
2022/12/15 14:22:22;;;;;;;56.30;27.13;;;;;;;-1.45;76.83;98368.55;2169214;81;20985;-81
2022/12/15 14:25:21;;;;;;;48.27;24.83;;;;;;;-1.42;77.36;98378.95;2168687;81;20945;-83
2022/12/15 14:28:21;;;;;;;63.87;31.87;;;;;;;-1.37;77.56;98376.22;2168890;81;20941;-84
2022/12/15 14:31:22;;;;;;;78.57;36.37;;;;;;;-1.33;77.01;98379.41;2169614;81;21020;-85
2022/12/15 14:34:22;;;;;;;64.43;31.97;;;;;;;-1.34;77.02;98387.90;2170116;81;20940;-83
2022/12/15 14:37:22;;;;;;;55.33;28.90;;;;;;;-1.36;76.30;98388.62;2169902;81;21040;-83
2022/12/15 14:40:23;;;;;;;45.43;26.03;;;;;;;-1.46;76.66;98391.12;2171266;82;20956;-85
2022/12/15 14:43:23;;;;;;;89.47;34.37;;;;;;;-1.48;76.70;98395.28;2170950;81;21048;-84
2022/12/15 14:46:24;;;;;;;88.87;35.20;;;;;;;-1.49;76.59;98392.64;2170154;81;20972;-84
2022/12/15 14:49:24;;;;;;;84.57;35.07;;;;;;;-1.54;76.56;98393.68;2170337;81;20968;-83
2022/12/15 14:52:25;;;;;;;73.87;32.77;;;;;;;-1.56;76.80;98395.28;2171480;81;20984;-84
2022/12/15 14:55:25;;;;;;;85.40;35.53;;;;;;;-1.55;76.92;98399.60;2171846;81;21008;-82
2022/12/15 14:58:25;;;;;;;110.47;43.97;;;;;;;-1.10;79.81;98404.90;2170652;81;20984;-84
2022/12/15 15:01:26;;;;;;;105.07;44.80;;;;;;;-1.12;78.24;98409.06;2171133;81;21082;-83
2022/12/15 15:04:28;;;;;;;86.73;38.47;;;;;;;-1.14;78.16;98415.80;2170666;81;21087;-84
2022/12/15 15:07:29;;;;;;;88.27;41.53;;;;;;;-1.12;77.87;98415.87;2170230;81;20988;-84
2022/12/15 15:10:30;;;;;;;88.50;40.47;;;;;;;-1.12;78.35;98423.16;2169815;81;20969;-83
2022/12/15 15:13:30;;;;;;;90.20;44.17;;;;;;;-1.11;78.54;98426.19;2169822;81;20988;-81
2022/12/15 15:16:31;;;;;;;82.80;39.70;;;;;;;-1.10;78.76;98428.35;2170704;81;21004;-84
2022/12/15 15:19:31;;;;;;;81.80;37.47;;;;;;;-1.07;78.62;98420.82;2170933;81;21363;-82
2022/12/15 15:22:31;;;;;;;80.13;37.23;;;;;;;-1.07;78.30;98428.11;2171175;81;20952;-83
2022/12/15 15:25:32;;;;;;;76.07;35.93;;;;;;;-1.06;78.62;98434.98;2170896;81;20989;-83
2022/12/15 15:28:32;;;;;;;67.67;36.20;;;;;;;-1.03;78.28;98440.66;2171098;81;21336;-84
2022/12/15 15:31:33;;;;;;;73.00;35.97;;;;;;;-1.07;78.58;98445.16;2170295;81;21020;-83
2022/12/15 15:34:33;;;;;;;71.13;35.10;;;;;;;-1.06;78.74;98444.36;2170842;81;20952;-83
2022/12/15 15:37:33;;;;;;;200.67;93.77;;;;;;;-1.10;78.73;98445.00;2170714;81;21443;-83
2022/12/15 15:40:34;;;;;;;80.90;40.97;;;;;;;-1.18;78.68;98446.30;2170206;81;20956;-82
2022/12/15 15:43:34;;;;;;;68.20;34.47;;;;;;;-1.22;79.03;98441.82;2182726;81;21007;-83
2022/12/15 15:46:35;;;;;;;66.70;34.33;;;;;;;-1.27;79.23;98450.95;2187513;81;20944;-84
2022/12/15 15:49:35;;;;;;;68.67;34.57;;;;;;;-1.30;79.49;98456.79;2187663;81;21023;-83
2022/12/15 15:52:36;;;;;;;64.87;32.20;;;;;;;-1.29;79.37;98455.98;2188235;81;20999;-84
2022/12/15 15:55:36;;;;;;;70.43;34.00;;;;;;;-1.27;79.52;98454.39;2188896;81;20975;-82
2022/12/15 15:58:36;;;;;;;70.47;36.80;;;;;;;-1.24;79.80;98466.47;2188991;81;21391;-83
2022/12/15 16:01:37;;;;;;;62.10;30.33;;;;;;;-1.25;79.85;98474.95;2188916;81;21087;-82
2022/12/15 16:04:40;;;;;;;61.47;31.73;;;;;;;-1.30;79.77;98481.11;2189071;81;20995;-82
2022/12/15 16:07:37;;;;;;;71.03;35.47;;;;;;;-1.32;79.75;98486.16;2187263;81;20951;-82
2022/12/15 16:10:38;;;;;;;63.07;32.90;;;;;;;-1.35;80.01;98505.20;2187839;81;20951;-83
2022/12/15 16:13:38;;;;;;;58.30;31.43;;;;;;;-1.34;80.21;98512.08;2188532;81;20995;-83
2022/12/15 16:16:39;;;;;;;57.53;30.43;;;;;;;-1.32;79.92;98513.04;2188050;81;21399;-81
2022/12/15 16:19:39;;;;;;;49.37;28.33;;;;;;;-1.24;79.52;98507.44;2188621;81;20960;-82